Time;durP1;ratioP1;P1;durP2;ratioP2;P2;SDS_P1;SDS_P2;PMS_P1;PMS_P2;Temp;Humidity;BMP_temperature;BMP_pressure;BME280_temperature;BME280_humidity;BME280_pressure;Samples;Min_cycle;Max_cycle;Signal;HPM_P1;HPM_P2
2023/04/03 00:01:02;;;;;;;3.73;1.60;;;2.30;99.90;;;;;;4978037;28;20598;-88
2023/04/03 00:03:29;;;;;;;1.67;1.20;;;2.30;99.90;;;;;;4970602;28;20658;-86
2023/04/03 00:05:56;;;;;;;4.80;1.50;;;2.20;99.90;;;;;;4976951;28;20228;-84
2023/04/03 00:08:23;;;;;;;1.63;1.40;;;2.10;99.90;;;;;;4959592;28;20201;-83
2023/04/03 00:10:50;;;;;;;2.30;1.47;;;2.10;99.90;;;;;;4976279;28;20314;-84
2023/04/03 00:13:17;;;;;;;4.00;1.60;;;2.10;99.90;;;;;;4959672;28;20567;-81
2023/04/03 00:15:45;;;;;;;3.37;1.30;;;2.00;99.90;;;;;;4962218;28;20304;-78
2023/04/03 00:18:12;;;;;;;2.03;1.43;;;1.90;99.90;;;;;;4976585;28;20223;-82
2023/04/03 00:20:39;;;;;;;2.03;1.50;;;1.90;99.90;;;;;;4976462;28;20197;-79
2023/04/03 00:23:06;;;;;;;3.90;1.60;;;1.90;99.90;;;;;;4976719;28;20276;-83
2023/04/03 00:25:33;;;;;;;3.17;1.40;;;1.80;99.90;;;;;;4976409;28;20288;-80
2023/04/03 00:28:00;;;;;;;2.77;1.33;;;1.80;99.90;;;;;;4958760;28;20205;-82
2023/04/03 00:30:27;;;;;;;2.77;1.20;;;1.70;99.90;;;;;;4958413;28;20225;-83
2023/04/03 00:32:54;;;;;;;3.53;1.60;;;1.70;99.90;;;;;;4959230;28;20200;-79
2023/04/03 00:35:23;;;;;;;3.77;1.40;;;1.70;99.90;;;;;;4958882;28;20270;-83
2023/04/03 00:37:55;;;;;;;2.10;1.40;;;1.70;99.90;;;;;;4958632;28;20226;-80
2023/04/03 00:40:24;;;;;;;3.07;1.30;;;1.60;99.90;;;;;;4958455;28;20197;-77
2023/04/03 00:42:56;;;;;;;5.33;1.40;;;1.50;99.90;;;;;;4976225;28;20670;-80
2023/04/03 00:45:29;;;;;;;1.83;1.20;;;1.70;99.90;;;;;;4958470;28;20300;-79
2023/04/03 00:47:56;;;;;;;2.37;1.30;;;1.60;99.90;;;;;;4975320;28;20288;-80
2023/04/03 00:50:24;;;;;;;3.07;1.47;;;1.50;99.90;;;;;;4958399;28;20229;-81
2023/04/03 00:52:51;;;;;;;2.83;1.20;;;1.50;99.90;;;;;;4975606;28;20205;-81
2023/04/03 00:55:19;;;;;;;2.07;1.40;;;1.40;99.90;;;;;;4926665;28;20218;-81
2023/04/03 00:57:47;;;;;;;5.80;1.40;;;1.40;99.90;;;;;;4975272;28;20294;-78
2023/04/03 01:00:18;;;;;;;1.80;1.20;;;1.40;99.90;;;;;;4975891;28;20197;-77
2023/04/03 01:02:45;;;;;;;2.73;1.30;;;1.30;99.90;;;;;;4975475;28;20194;-82
2023/04/03 01:05:16;;;;;;;1.90;1.10;;;1.30;99.90;;;;;;4975615;28;20256;-79
2023/04/03 01:07:44;;;;;;;2.30;1.20;;;1.30;99.90;;;;;;4942336;28;20229;-81
2023/04/03 01:10:16;;;;;;;1.80;1.13;;;1.30;99.90;;;;;;4976771;28;20221;-82
2023/04/03 01:12:47;;;;;;;3.13;1.37;;;1.20;99.90;;;;;;4976668;28;20213;-80
2023/04/03 01:15:22;;;;;;;2.87;1.50;;;1.10;99.90;;;;;;4958409;28;20205;-78
2023/04/03 01:18:00;;;;;;;2.43;1.20;;;1.10;99.90;;;;;;4958343;28;20226;-82
2023/04/03 01:20:31;;;;;;;3.23;1.33;;;1.10;99.90;;;;;;4967477;23;20238;-82
2023/04/03 01:23:30;;;;;;;3.90;1.20;;;1.10;99.90;;;;;;4955908;29;20237;-85
2023/04/03 01:25:57;;;;;;;2.10;1.27;;;1.10;99.90;;;;;;4954709;29;20201;-87
2023/04/03 01:28:33;;;;;;;3.77;1.40;;;1.00;99.90;;;;;;4954356;29;20202;-82
2023/04/03 01:31:34;;;;;;;1.40;1.20;;;1.00;99.90;;;;;;4954496;29;20226;-76
2023/04/03 01:34:02;;;;;;;3.30;1.30;;;1.00;99.90;;;;;;4954257;29;20194;-77
2023/04/03 01:36:31;;;;;;;3.90;1.33;;;0.90;99.90;;;;;;4955207;29;20313;-76
2023/04/03 01:38:59;;;;;;;3.83;1.20;;;0.90;99.90;;;;;;4955475;28;20201;-82
2023/04/03 01:41:27;;;;;;;2.80;1.30;;;0.90;99.90;;;;;;4955764;29;20197;-75
2023/04/03 01:43:54;;;;;;;2.03;1.30;;;0.90;99.90;;;;;;4956060;29;20198;-83
2023/04/03 01:46:22;;;;;;;2.83;1.50;;;0.90;99.90;;;;;;4956359;29;20195;-84
2023/04/03 01:48:49;;;;;;;1.60;1.10;;;0.80;99.90;;;;;;4954336;29;20305;-80
2023/04/03 01:51:16;;;;;;;2.40;1.10;;;0.70;99.90;;;;;;4938260;29;20206;-87
2023/04/03 01:53:43;;;;;;;2.50;1.30;;;0.70;99.90;;;;;;4956566;29;20663;-81
2023/04/03 01:56:09;;;;;;;1.90;1.20;;;0.70;99.90;;;;;;4939387;29;20206;-81
2023/04/03 01:58:36;;;;;;;1.70;1.20;;;0.70;99.90;;;;;;4954673;28;20202;-77
2023/04/03 02:01:03;;;;;;;2.43;1.43;;;0.60;99.90;;;;;;4955187;29;20559;-81
2023/04/03 02:03:30;;;;;;;3.37;1.27;;;0.60;99.90;;;;;;4925140;29;20206;-80
2023/04/03 02:05:57;;;;;;;3.03;1.33;;;0.60;99.90;;;;;;4955429;29;20230;-81
2023/04/03 02:08:24;;;;;;;3.47;1.20;;;0.60;99.90;;;;;;4955102;29;20670;-78
2023/04/03 02:10:52;;;;;;;2.80;1.30;;;0.50;99.90;;;;;;4954999;29;20222;-82
2023/04/03 02:13:19;;;;;;;2.40;1.20;;;0.60;99.90;;;;;;4955115;29;20532;-83
2023/04/03 02:15:47;;;;;;;3.10;1.17;;;0.50;99.90;;;;;;4954859;29;20211;-80
2023/04/03 02:18:15;;;;;;;1.67;1.27;;;0.50;99.90;;;;;;4953729;28;20313;-81
2023/04/03 02:20:42;;;;;;;2.90;1.30;;;0.50;99.90;;;;;;4939841;29;20762;-79
2023/04/03 02:23:09;;;;;;;5.30;1.60;;;0.50;99.90;;;;;;4957542;29;20238;-84
2023/04/03 02:25:36;;;;;;;1.40;1.20;;;0.40;99.90;;;;;;4955509;29;20416;-86
2023/04/03 02:28:05;;;;;;;2.70;1.50;;;0.50;99.90;;;;;;4953708;29;20554;-84
2023/04/03 02:30:34;;;;;;;2.70;1.40;;;0.40;99.90;;;;;;4937994;29;20226;-79
2023/04/03 02:33:01;;;;;;;3.60;1.50;;;0.30;99.90;;;;;;4954043;29;20548;-81
2023/04/03 02:35:29;;;;;;;2.67;1.17;;;0.30;99.90;;;;;;4937862;29;20626;-85
2023/04/03 02:37:56;;;;;;;4.97;1.33;;;0.30;99.90;;;;;;4955503;29;20202;-84
2023/04/03 02:40:23;;;;;;;3.57;1.33;;;0.30;99.90;;;;;;4937272;29;20206;-81
2023/04/03 02:42:50;;;;;;;2.30;1.40;;;0.20;99.90;;;;;;4953737;29;20202;-82
2023/04/03 02:45:17;;;;;;;3.77;1.20;;;0.20;99.90;;;;;;4953778;29;20308;-80
2023/04/03 02:47:44;;;;;;;2.90;1.30;;;0.20;99.90;;;;;;4953221;29;20194;-78
2023/04/03 02:50:11;;;;;;;1.87;1.17;;;0.20;99.90;;;;;;4953113;29;20671;-76
2023/04/03 02:52:37;;;;;;;2.33;1.30;;;0.10;99.90;;;;;;4953778;28;20656;-79
2023/04/03 02:55:06;;;;;;;1.40;1.30;;;0.10;99.90;;;;;;4956466;29;20237;-76
2023/04/03 02:57:33;;;;;;;2.40;1.30;;;0.10;99.90;;;;;;4953023;29;20209;-77
2023/04/03 03:00:00;;;;;;;3.13;1.30;;;0.10;99.90;;;;;;4953183;29;20625;-77
2023/04/03 03:02:27;;;;;;;2.27;1.20;;;0.00;99.90;;;;;;4954294;29;20207;-85
2023/04/03 03:04:54;;;;;;;1.90;1.17;;;0.00;99.90;;;;;;4968654;29;20297;-79
2023/04/03 03:07:21;;;;;;;2.00;1.13;;;0.00;99.90;;;;;;4967587;29;20634;-84
2023/04/03 03:09:48;;;;;;;3.13;1.17;;;0.00;99.90;;;;;;4954279;28;20227;-78
2023/04/03 03:12:15;;;;;;;2.77;1.40;;;0.00;99.90;;;;;;4963177;29;20204;-83
2023/04/03 03:14:42;;;;;;;2.17;1.23;;;-0.10;99.90;;;;;;4956857;29;20549;-78
2023/04/03 03:17:09;;;;;;;3.77;1.20;;;-0.10;99.90;;;;;;4941258;29;20205;-79
2023/04/03 03:19:36;;;;;;;2.50;1.10;;;-0.20;99.90;;;;;;4958232;28;20269;-81
2023/04/03 03:22:03;;;;;;;3.63;1.40;;;-0.10;99.90;;;;;;4946400;28;20220;-84
2023/04/03 03:24:30;;;;;;;2.33;1.20;;;-0.10;99.90;;;;;;4960108;28;20555;-83
2023/04/03 03:26:57;;;;;;;3.60;1.37;;;-0.20;99.90;;;;;;4978064;28;20303;-81
2023/04/03 03:29:24;;;;;;;3.10;1.27;;;-0.20;99.90;;;;;;4959790;28;20243;-79
2023/04/03 03:31:51;;;;;;;3.73;1.33;;;-0.20;99.90;;;;;;4977628;28;20197;-78
2023/04/03 03:34:18;;;;;;;1.90;1.30;;;-0.20;99.90;;;;;;4959897;28;20329;-78
2023/04/03 03:36:45;;;;;;;2.73;1.40;;;-0.20;99.90;;;;;;4961104;28;20205;-80
2023/04/03 03:39:12;;;;;;;3.57;1.57;;;-0.20;99.90;;;;;;4960206;28;20207;-81
2023/04/03 03:41:39;;;;;;;4.47;1.43;;;-0.20;99.90;;;;;;4960867;28;20688;-78
2023/04/03 03:44:06;;;;;;;4.00;1.40;;;-0.20;99.90;;;;;;4981678;28;20188;-87
2023/04/03 03:46:33;;;;;;;6.07;1.63;;;-0.30;99.90;;;;;;4960479;28;20294;-85
2023/04/03 03:49:00;;;;;;;2.00;1.33;;;-0.30;99.90;;;;;;4972980;28;20205;-79
2023/04/03 03:51:27;;;;;;;2.60;1.43;;;-0.30;99.90;;;;;;4966273;28;20228;-80
2023/04/03 03:53:53;;;;;;;5.57;1.40;;;-0.40;99.90;;;;;;4961382;28;20208;-78
2023/04/03 03:56:22;;;;;;;4.80;1.20;;;-0.40;99.90;;;;;;4961370;28;20558;-82
2023/04/03 03:58:49;;;;;;;2.17;1.30;;;-0.40;99.90;;;;;;4959366;28;20528;-80
2023/04/03 04:01:17;;;;;;;4.10;1.10;;;-0.40;99.90;;;;;;4978750;28;20207;-83
2023/04/03 04:03:45;;;;;;;2.97;1.30;;;-0.50;99.90;;;;;;4962057;28;20300;-82
2023/04/03 04:06:12;;;;;;;3.40;1.40;;;-0.50;99.90;;;;;;4982129;28;20211;-83
2023/04/03 04:08:39;;;;;;;2.00;1.10;;;-0.50;99.90;;;;;;4963703;28;20206;-83
2023/04/03 04:11:07;;;;;;;1.97;1.10;;;-0.50;99.90;;;;;;4977704;28;20753;-85
2023/04/03 04:13:36;;;;;;;1.87;1.20;;;-0.60;99.90;;;;;;4959283;28;20216;-82
2023/04/03 04:16:03;;;;;;;2.30;1.20;;;-0.50;99.90;;;;;;4976581;28;20279;-84
2023/04/03 04:18:30;;;;;;;1.63;1.20;;;-0.50;99.90;;;;;;4959107;28;20217;-84
2023/04/03 04:20:57;;;;;;;4.67;1.20;;;-0.50;99.90;;;;;;4958910;28;20232;-84
2023/04/03 04:23:27;;;;;;;5.23;1.27;;;-0.50;99.90;;;;;;4958469;28;20201;-83
2023/04/03 04:25:56;;;;;;;1.77;1.00;;;-0.50;99.90;;;;;;4976352;28;20186;-81
2023/04/03 04:28:23;;;;;;;3.37;1.20;;;-0.50;99.90;;;;;;4959073;28;20202;-84
2023/04/03 04:30:51;;;;;;;1.90;1.30;;;-0.50;99.90;;;;;;4958664;28;20233;-84
2023/04/03 04:33:18;;;;;;;5.03;1.33;;;-0.60;99.90;;;;;;4958832;28;20188;-83
2023/04/03 04:35:48;;;;;;;3.30;1.23;;;-0.60;99.90;;;;;;4975916;28;20212;-84
2023/04/03 04:38:17;;;;;;;2.93;1.30;;;-0.60;99.90;;;;;;4976864;28;20224;-84
2023/04/03 04:40:44;;;;;;;2.23;1.20;;;-0.60;99.90;;;;;;4975972;28;20195;-78
2023/04/03 04:43:14;;;;;;;3.10;1.23;;;-0.60;99.90;;;;;;4975877;28;20189;-82
2023/04/03 04:45:41;;;;;;;4.77;1.30;;;-0.60;99.90;;;;;;4975791;28;20600;-82
2023/04/03 04:48:08;;;;;;;5.73;1.40;;;-0.60;99.90;;;;;;4958239;28;20663;-81
2023/04/03 04:50:49;;;;;;;1.80;1.20;;;-0.60;99.90;;;;;;4964234;23;20242;-82
2023/04/03 04:53:17;;;;;;;1.30;1.20;;;-0.50;99.90;;;;;;4958473;28;20209;-83
2023/04/03 04:55:45;;;;;;;2.60;1.30;;;-0.60;99.90;;;;;;4975828;28;20661;-82
2023/04/03 04:58:12;;;;;;;2.37;1.20;;;-0.50;99.90;;;;;;4975734;28;20302;-82
2023/04/03 05:00:39;;;;;;;2.40;1.33;;;-0.50;99.90;;;;;;4958179;28;20216;-84
2023/04/03 05:03:06;;;;;;;2.97;1.40;;;-0.60;99.90;;;;;;4975254;28;20235;-83
2023/04/03 05:05:33;;;;;;;3.37;1.40;;;-0.60;99.90;;;;;;4958320;28;20200;-82
2023/04/03 05:08:02;;;;;;;3.17;1.30;;;-0.60;99.90;;;;;;4958004;28;20200;-82
2023/04/03 05:10:29;;;;;;;3.33;1.30;;;-0.60;99.90;;;;;;4957752;28;20727;-82
2023/04/03 05:12:58;;;;;;;2.73;1.20;;;-0.60;99.90;;;;;;4975182;28;20282;-81
2023/04/03 05:15:37;;;;;;;2.40;1.50;;;-0.50;99.90;;;;;;4974932;28;20545;-84
2023/04/03 05:18:07;;;;;;;4.53;1.40;;;-0.50;99.90;;;;;;4958388;28;20216;-86
2023/04/03 05:20:50;;;;;;;3.27;1.20;;;-0.40;99.90;;;;;;4942734;28;20202;-76
2023/04/03 05:23:17;;;;;;;2.93;1.30;;;-0.40;99.90;;;;;;4942569;28;20237;-83
2023/04/03 05:25:46;;;;;;;3.13;1.47;;;-0.40;99.90;;;;;;4957861;28;20577;-86
2023/04/03 05:28:18;;;;;;;2.33;1.20;;;-0.40;99.90;;;;;;4957588;28;20662;-84
2023/04/03 05:30:45;;;;;;;3.43;1.40;;;-0.40;99.90;;;;;;4957700;28;20251;-84
2023/04/03 05:33:13;;;;;;;4.43;1.47;;;-0.40;99.90;;;;;;4956870;28;20213;-78
2023/04/03 05:35:43;;;;;;;1.40;1.27;;;-0.40;99.90;;;;;;4975587;28;20194;-84
2023/04/03 05:38:11;;;;;;;2.43;1.37;;;-0.30;99.90;;;;;;4977150;28;20227;-77
2023/04/03 05:41:01;;;;;;;4.30;1.70;;;-0.30;99.90;;;;;;4958970;28;20236;-80
2023/04/03 05:43:26;;;;;;;4.37;1.70;;;-0.30;99.90;;;;;;4957453;28;20204;-80
2023/04/03 05:45:53;;;;;;;2.93;1.40;;;-0.20;99.90;;;;;;4974863;28;20192;-79
2023/04/03 05:48:20;;;;;;;3.47;1.70;;;-0.20;99.90;;;;;;4959342;28;20246;-79
2023/04/03 05:50:48;;;;;;;2.80;1.50;;;-0.10;99.90;;;;;;4974527;28;20801;-84
2023/04/03 05:53:27;;;;;;;5.73;1.43;;;-0.10;99.90;;;;;;4974857;28;20597;-84
2023/04/03 05:55:53;;;;;;;4.27;1.60;;;0.00;99.90;;;;;;4974638;28;20203;-80
2023/04/03 05:58:20;;;;;;;4.60;1.47;;;0.10;99.90;;;;;;4957055;28;20670;-79
2023/04/03 06:00:48;;;;;;;3.20;1.67;;;0.10;99.90;;;;;;4957356;28;20212;-80
2023/04/03 06:03:15;;;;;;;2.50;1.40;;;0.20;99.90;;;;;;4957606;28;20684;-81
2023/04/03 06:05:42;;;;;;;3.43;1.77;;;0.20;99.90;;;;;;4957235;28;20236;-82
2023/04/03 06:08:09;;;;;;;4.33;1.60;;;0.20;99.90;;;;;;4957383;28;20208;-81
2023/04/03 06:10:37;;;;;;;2.87;1.30;;;0.30;99.90;;;;;;4974758;28;20230;-82
2023/04/03 06:13:08;;;;;;;4.77;1.67;;;0.40;99.90;;;;;;4956966;28;20205;-77
2023/04/03 06:15:35;;;;;;;4.27;1.90;;;0.40;99.90;;;;;;4974393;28;20197;-77
2023/04/03 06:18:02;;;;;;;4.77;1.60;;;0.40;99.90;;;;;;4956947;28;20300;-78
2023/04/03 06:23:10;;;;;;;3.20;1.53;;;0.60;99.90;;;;;;4972758;28;20567;-81
2023/04/03 06:25:37;;;;;;;5.57;1.70;;;0.80;99.90;;;;;;4975053;28;20655;-80
2023/04/03 06:28:04;;;;;;;4.00;1.60;;;0.60;99.90;;;;;;4957947;28;20194;-80
2023/04/03 06:30:31;;;;;;;3.20;1.50;;;0.70;99.90;;;;;;4957221;28;20307;-80
2023/04/03 06:32:59;;;;;;;3.47;1.70;;;0.80;99.90;;;;;;4956837;28;20233;-80
2023/04/03 06:35:28;;;;;;;3.37;1.40;;;0.70;99.90;;;;;;4974156;28;20573;-81
2023/04/03 06:37:56;;;;;;;5.10;1.70;;;0.80;99.90;;;;;;4956550;28;20639;-78
2023/04/03 06:40:25;;;;;;;2.57;1.50;;;0.90;99.90;;;;;;4957717;23;20230;-78
2023/04/03 06:42:52;;;;;;;5.03;1.70;;;0.80;99.90;;;;;;4934089;28;20198;-80
2023/04/03 06:45:19;;;;;;;4.33;1.80;;;0.90;99.90;;;;;;4956379;28;20213;-80
2023/04/03 06:47:50;;;;;;;2.30;1.50;;;0.90;99.90;;;;;;4973657;28;20212;-77
2023/04/03 06:50:17;;;;;;;5.53;1.50;;;0.90;99.90;;;;;;4956900;28;20241;-78
2023/04/03 06:52:47;;;;;;;4.53;2.00;;;1.00;99.90;;;;;;4956677;28;20559;-77
2023/04/03 06:55:14;;;;;;;4.17;1.47;;;1.20;99.90;;;;;;4956927;28;20197;-78
2023/04/03 06:57:41;;;;;;;4.20;1.80;;;1.20;99.90;;;;;;4974180;28;20201;-80
2023/04/03 07:00:09;;;;;;;4.10;1.80;;;1.10;99.90;;;;;;4973982;28;20600;-78
2023/04/03 07:02:37;;;;;;;4.27;1.80;;;1.10;99.90;;;;;;4973915;28;20275;-80
2023/04/03 07:05:05;;;;;;;4.20;1.60;;;1.00;99.90;;;;;;4956838;28;20209;-81
2023/04/03 07:07:34;;;;;;;3.47;1.50;;;1.00;99.90;;;;;;4957303;28;20216;-82
2023/04/03 07:10:01;;;;;;;3.17;1.70;;;0.90;99.90;;;;;;4956780;28;20304;-78
2023/04/03 07:12:28;;;;;;;3.77;1.57;;;1.00;99.90;;;;;;4956183;28;20215;-79
2023/04/03 07:14:55;;;;;;;4.17;1.53;;;1.10;99.90;;;;;;4955501;28;20191;-78
2023/04/03 07:17:22;;;;;;;4.17;2.00;;;1.10;99.90;;;;;;4972868;28;20277;-81
2023/04/03 07:19:49;;;;;;;2.70;1.50;;;1.20;99.90;;;;;;4955496;28;20249;-78
2023/04/03 07:22:16;;;;;;;2.37;1.40;;;1.20;99.90;;;;;;4972709;28;20237;-80
2023/04/03 07:24:47;;;;;;;2.43;1.33;;;1.50;99.90;;;;;;4955319;28;20548;-81
2023/04/03 07:27:15;;;;;;;3.23;1.57;;;1.40;99.90;;;;;;4955337;28;20545;-79
2023/04/03 07:29:42;;;;;;;4.07;1.80;;;1.50;99.90;;;;;;4972546;28;20196;-79
2023/04/03 07:32:16;;;;;;;4.07;1.80;;;1.60;99.90;;;;;;4955881;28;20218;-81
2023/04/03 07:34:44;;;;;;;2.70;1.60;;;1.70;99.90;;;;;;4973251;28;20203;-77
2023/04/03 07:37:11;;;;;;;3.57;1.50;;;1.80;99.90;;;;;;4955832;28;20572;-78
2023/04/03 07:39:38;;;;;;;4.87;1.60;;;1.80;99.90;;;;;;4939455;28;20193;-78
2023/04/03 07:42:06;;;;;;;2.67;1.33;;;1.90;99.90;;;;;;4947639;28;20552;-78
2023/04/03 07:44:33;;;;;;;3.63;1.63;;;2.00;99.90;;;;;;4955382;28;20560;-78
2023/04/03 07:47:00;;;;;;;3.93;1.70;;;1.90;99.90;;;;;;4955019;28;20216;-78
2023/04/03 07:49:27;;;;;;;3.20;1.40;;;2.00;99.90;;;;;;4956148;28;20209;-79
2023/04/03 07:51:54;;;;;;;3.27;1.40;;;2.00;99.90;;;;;;4955013;28;20591;-78
2023/04/03 07:54:21;;;;;;;3.80;1.53;;;2.10;99.90;;;;;;4936358;29;20190;-79
2023/04/03 07:56:49;;;;;;;4.40;1.73;;;2.10;99.90;;;;;;4969752;28;20557;-79
2023/04/03 07:59:34;;;;;;;3.20;1.70;;;2.20;99.90;;;;;;4976587;28;20281;-78
2023/04/03 08:02:01;;;;;;;3.33;1.50;;;2.30;99.90;;;;;;4959106;28;20218;-75
2023/04/03 08:04:28;;;;;;;2.33;1.43;;;2.20;99.90;;;;;;4959254;28;20569;-77
2023/04/03 08:06:55;;;;;;;4.67;1.57;;;2.30;99.90;;;;;;4959108;28;20245;-77
2023/04/03 08:09:22;;;;;;;5.37;1.80;;;2.40;99.90;;;;;;4959050;28;20204;-76
2023/04/03 08:11:52;;;;;;;3.70;1.60;;;2.60;99.90;;;;;;4958351;28;20236;-78
2023/04/03 08:14:20;;;;;;;3.50;1.40;;;2.70;99.90;;;;;;4958240;28;20637;-76
2023/04/03 08:16:48;;;;;;;1.73;1.30;;;2.70;99.90;;;;;;4975784;28;20198;-78
2023/04/03 08:19:17;;;;;;;2.47;1.30;;;2.70;99.90;;;;;;4975191;28;20213;-75
2023/04/03 08:21:54;;;;;;;2.87;1.30;;;2.80;99.90;;;;;;4975565;28;20681;-76
2023/04/03 08:24:31;;;;;;;2.83;1.40;;;2.90;99.90;;;;;;4958089;28;20716;-78
2023/04/03 08:27:00;;;;;;;5.07;1.70;;;2.90;99.90;;;;;;4975499;28;20288;-78
2023/04/03 08:29:27;;;;;;;2.63;1.50;;;3.10;99.90;;;;;;4957986;28;21046;-78
2023/04/03 08:31:54;;;;;;;2.57;1.60;;;3.30;99.90;;;;;;4957182;28;20230;-78
2023/04/03 08:34:21;;;;;;;2.27;1.30;;;3.80;99.90;;;;;;4975484;28;20668;-77
2023/04/03 08:40:01;;;;;;;2.07;1.13;;;5.00;99.90;;;;;;5331779;23;20597;-79
2023/04/03 08:47:46;;;;;;;1.67;1.10;;;5.70;99.90;;;;;;4965968;28;20183;-77
2023/04/03 08:51:23;;;;;;;2.20;1.27;;;6.40;99.90;;;;;;4940285;28;20204;-81
2023/04/03 08:54:21;;;;;;;4.90;1.30;;;6.90;95.90;;;;;;4969098;28;20272;-80
2023/04/03 08:57:14;;;;;;;2.90;1.20;;;7.30;96.90;;;;;;4964580;23;20255;-76
2023/04/03 09:00:23;;;;;;;2.87;1.30;;;8.00;96.50;;;;;;4939099;28;20250;-76
2023/04/03 09:02:55;;;;;;;2.67;1.00;;;8.00;90.50;;;;;;4958030;28;20231;-72
2023/04/03 09:05:53;;;;;;;2.90;1.30;;;7.00;88.00;;;;;;4946321;29;20327;-76
2023/04/03 09:08:26;;;;;;;2.53;1.40;;;7.40;92.30;;;;;;4945341;28;20285;-74
2023/04/03 09:11:01;;;;;;;3.50;1.27;;;7.50;87.50;;;;;;4958291;28;20312;-76
2023/04/03 09:13:39;;;;;;;1.83;1.00;;;8.10;88.40;;;;;;4966425;28;20261;-80
2023/04/03 09:16:44;;;;;;;4.33;1.27;;;8.30;86.60;;;;;;4947147;28;20201;-78
2023/04/03 09:19:31;;;;;;;3.07;1.30;;;8.30;81.70;;;;;;4956942;28;20264;-76
2023/04/03 09:22:25;;;;;;;2.90;1.20;;;7.90;79.70;;;;;;4929987;28;20197;-82
2023/04/03 09:25:16;;;;;;;2.17;1.13;;;7.90;79.50;;;;;;4898423;29;20203;-76
2023/04/03 09:27:44;;;;;;;4.17;1.20;;;8.10;79.00;;;;;;4899435;29;20200;-76
2023/04/03 09:30:25;;;;;;;2.67;1.07;;;8.50;81.40;;;;;;4896147;29;20570;-73
2023/04/03 09:32:54;;;;;;;1.87;1.00;;;8.90;79.60;;;;;;4880319;29;20224;-72
2023/04/03 09:35:24;;;;;;;2.23;0.90;;;9.30;79.80;;;;;;4895599;29;20204;-75
2023/04/03 09:38:11;;;;;;;2.67;1.10;;;9.60;74.00;;;;;;4907630;29;20206;-73
2023/04/03 09:40:47;;;;;;;3.57;1.40;;;9.50;74.00;;;;;;4913980;29;20191;-75
2023/04/03 09:43:17;;;;;;;5.23;1.20;;;9.70;73.30;;;;;;4914117;29;20282;-75
2023/04/03 09:45:45;;;;;;;4.07;1.60;;;9.70;71.50;;;;;;4913374;29;20214;-74
2023/04/03 09:48:17;;;;;;;2.50;1.30;;;9.90;72.90;;;;;;4903378;29;20287;-81
2023/04/03 09:50:50;;;;;;;2.30;1.10;;;9.90;69.90;;;;;;4911040;29;20211;-76
2023/04/03 09:53:28;;;;;;;1.83;1.30;;;9.20;68.10;;;;;;4895478;29;20211;-74
2023/04/03 09:55:55;;;;;;;1.73;1.10;;;8.50;71.00;;;;;;4888652;29;20228;-73
2023/04/03 09:58:37;;;;;;;3.00;1.10;;;8.50;75.20;;;;;;4908824;29;20578;-72
2023/04/03 10:01:39;;;;;;;3.83;1.10;;;8.50;71.70;;;;;;4878455;29;20252;-71
2023/04/03 10:04:18;;;;;;;3.33;1.20;;;7.80;71.90;;;;;;4972769;28;20196;-70
2023/04/03 10:06:51;;;;;;;2.87;1.10;;;7.20;75.70;;;;;;4973496;28;20200;-71
2023/04/03 10:09:25;;;;;;;2.73;1.20;;;7.30;76.90;;;;;;4973436;28;20196;-73
2023/04/03 10:12:06;;;;;;;2.90;1.40;;;7.60;76.50;;;;;;4955554;28;20298;-72
2023/04/03 10:14:38;;;;;;;2.57;1.20;;;7.90;77.90;;;;;;4955915;28;20263;-73
2023/04/03 10:17:11;;;;;;;1.27;1.00;;;8.60;76.20;;;;;;4972940;28;20198;-72
2023/04/03 10:19:52;;;;;;;2.23;1.33;;;9.00;74.20;;;;;;4964923;28;20370;-72
2023/04/03 10:22:51;;;;;;;2.03;1.10;;;8.30;71.20;;;;;;4933319;28;20189;-74
2023/04/03 10:25:29;;;;;;;2.87;1.33;;;7.80;74.80;;;;;;4955835;28;20256;-74
2023/04/03 10:28:22;;;;;;;2.27;1.10;;;7.60;75.10;;;;;;4973052;28;20228;-75
2023/04/03 10:31:16;;;;;;;1.70;1.10;;;8.10;76.70;;;;;;4875645;29;20205;-73
2023/04/03 10:34:06;;;;;;;2.63;1.20;;;8.60;77.50;;;;;;4873851;29;20761;-77
2023/04/03 10:36:59;;;;;;;1.23;0.90;;;8.90;71.80;;;;;;4875980;29;20292;-76
2023/04/03 10:39:44;;;;;;;3.47;1.00;;;8.90;70.60;;;;;;4857382;29;20200;-78
2023/04/03 10:42:39;;;;;;;1.57;1.07;;;8.50;70.00;;;;;;4865453;29;20303;-78
2023/04/03 10:45:08;;;;;;;3.43;1.10;;;8.10;70.50;;;;;;4875948;29;20236;-77
2023/04/03 10:47:51;;;;;;;1.87;1.10;;;8.40;74.40;;;;;;4838668;29;20632;-76
2023/04/03 10:50:52;;;;;;;1.63;1.03;;;8.40;75.90;;;;;;4849105;29;20292;-77
2023/04/03 10:53:43;;;;;;;1.90;1.00;;;9.40;71.00;;;;;;4843649;29;20716;-75
2023/04/03 10:56:55;;;;;;;1.53;0.90;;;10.00;68.10;;;;;;4857135;29;20617;-77
2023/04/03 10:59:51;;;;;;;1.57;0.90;;;10.50;68.00;;;;;;4856678;29;20660;-75
2023/04/03 11:02:36;;;;;;;3.03;1.20;;;11.10;64.30;;;;;;4855064;29;20211;-77
2023/04/03 11:05:37;;;;;;;3.17;1.00;;;10.70;63.30;;;;;;4860475;29;20199;-74
2023/04/03 11:08:17;;;;;;;2.90;1.20;;;10.50;65.70;;;;;;4915093;28;20201;-79
2023/04/03 11:10:50;;;;;;;1.60;1.00;;;11.50;65.00;;;;;;4956493;28;20225;-79
2023/04/03 11:13:25;;;;;;;1.90;1.10;;;11.60;62.50;;;;;;4956663;28;20614;-78
2023/04/03 11:15:54;;;;;;;1.87;1.10;;;11.10;62.20;;;;;;4958424;28;20218;-78
2023/04/03 11:18:45;;;;;;;3.23;1.73;;;10.30;63.00;;;;;;4974989;28;20248;-77
2023/04/03 11:21:30;;;;;;;2.43;1.00;;;9.20;65.80;;;;;;4956889;28;20212;-76
2023/04/03 11:23:58;;;;;;;2.17;1.10;;;9.40;67.50;;;;;;4952527;28;20266;-76
2023/04/03 11:26:32;;;;;;;1.53;1.07;;;9.00;69.90;;;;;;4946456;28;20197;-77
2023/04/03 11:29:05;;;;;;;1.00;0.90;;;8.80;69.40;;;;;;4937157;29;20233;-79
2023/04/03 11:32:08;;;;;;;1.37;0.97;;;8.70;67.90;;;;;;4954890;28;20213;-76
2023/04/03 11:34:45;;;;;;;2.23;1.10;;;8.90;68.60;;;;;;4947542;28;20292;-74
2023/04/03 11:37:38;;;;;;;1.97;1.07;;;8.70;71.00;;;;;;4943750;29;20194;-77
2023/04/03 11:40:17;;;;;;;2.10;1.13;;;8.70;71.20;;;;;;4961139;28;20290;-77
2023/04/03 11:42:51;;;;;;;1.93;1.20;;;8.20;71.10;;;;;;4942432;28;20190;-79
2023/04/03 11:45:26;;;;;;;1.60;1.00;;;8.10;72.30;;;;;;4945739;29;20828;-80
2023/04/03 11:48:16;;;;;;;1.73;1.00;;;9.30;69.70;;;;;;4941311;29;20197;-75
2023/04/03 11:50:51;;;;;;;1.60;0.90;;;11.30;64.60;;;;;;4964470;28;20223;-78
2023/04/03 11:53:30;;;;;;;1.20;0.93;;;13.20;60.40;;;;;;4965213;28;20216;-82
2023/04/03 11:56:00;;;;;;;1.17;0.73;;;13.10;55.70;;;;;;4977042;28;20627;-79
2023/04/03 11:58:34;;;;;;;2.30;0.90;;;13.00;56.40;;;;;;4943012;28;20194;-79
2023/04/03 12:01:31;;;;;;;1.83;0.90;;;12.80;57.00;;;;;;4947556;29;20209;-75
2023/04/03 12:04:10;;;;;;;2.37;1.07;;;12.00;56.70;;;;;;4956770;28;20194;-78
2023/04/03 12:06:52;;;;;;;4.70;0.97;;;11.90;58.20;;;;;;4978599;28;20197;-85
2023/04/03 12:09:52;;;;;;;2.00;0.97;;;10.80;59.90;;;;;;4949339;28;20192;-79
2023/04/03 12:12:32;;;;;;;1.70;1.10;;;10.10;61.20;;;;;;4933725;29;20225;-77
2023/04/03 12:15:23;;;;;;;1.47;1.10;;;10.50;60.20;;;;;;4942178;29;20201;-77
2023/04/03 12:17:51;;;;;;;1.73;1.00;;;10.20;60.40;;;;;;4955249;29;20233;-75
2023/04/03 12:20:53;;;;;;;2.70;1.10;;;9.70;62.00;;;;;;4942106;29;20186;-75
2023/04/03 12:23:32;;;;;;;2.10;1.00;;;9.50;64.40;;;;;;4968778;28;20193;-81
2023/04/03 12:26:04;;;;;;;1.23;0.83;;;9.10;64.70;;;;;;4934021;28;20197;-81
2023/04/03 12:28:39;;;;;;;1.60;1.00;;;8.80;65.60;;;;;;4957217;28;20189;-78
2023/04/03 12:31:10;;;;;;;1.37;0.97;;;8.70;66.30;;;;;;4957791;28;20708;-75
2023/04/03 12:34:04;;;;;;;2.30;1.10;;;9.10;68.00;;;;;;4958249;28;20675;-75
2023/04/03 12:36:50;;;;;;;3.40;1.00;;;8.50;66.90;;;;;;4957936;28;20189;-76
2023/04/03 12:39:41;;;;;;;1.60;1.00;;;8.70;68.30;;;;;;4964973;28;20190;-78
2023/04/03 12:42:49;;;;;;;1.53;1.00;;;8.70;66.20;;;;;;4955353;28;20704;-81
2023/04/03 12:45:21;;;;;;;1.73;0.90;;;9.90;66.40;;;;;;4955611;29;20265;-82
2023/04/03 12:47:53;;;;;;;4.23;1.27;;;10.90;64.70;;;;;;4942262;28;20209;-79
2023/04/03 12:50:30;;;;;;;1.60;0.80;;;10.60;60.40;;;;;;4948450;28;20358;-82
2023/04/03 12:53:03;;;;;;;1.40;0.90;;;10.00;61.30;;;;;;4958355;28;20727;-82
2023/04/03 12:55:30;;;;;;;1.33;1.00;;;10.00;62.80;;;;;;4972047;28;20229;-75
2023/04/03 12:58:20;;;;;;;1.90;0.90;;;10.00;62.10;;;;;;4954297;29;20204;-74
2023/04/03 13:01:03;;;;;;;1.80;0.77;;;9.70;62.30;;;;;;4933874;29;20542;-76
2023/04/03 13:03:30;;;;;;;2.37;1.10;;;9.30;61.40;;;;;;4937424;29;20202;-73
2023/04/03 13:06:03;;;;;;;2.43;1.00;;;8.90;64.20;;;;;;4938209;29;20190;-73
2023/04/03 13:08:30;;;;;;;1.50;0.97;;;8.80;65.00;;;;;;4937861;29;20317;-72
2023/04/03 13:11:10;;;;;;;2.43;0.90;;;8.90;65.90;;;;;;4951067;29;20191;-75
2023/04/03 13:13:39;;;;;;;2.57;1.00;;;9.00;66.80;;;;;;4934777;29;20230;-72
2023/04/03 13:16:15;;;;;;;1.57;0.90;;;8.70;65.90;;;;;;4961732;28;20281;-71
2023/04/03 13:18:42;;;;;;;3.17;0.90;;;8.10;64.30;;;;;;4933214;29;20229;-74
2023/04/03 13:21:19;;;;;;;2.03;1.10;;;7.50;65.70;;;;;;4937999;29;20206;-79
2023/04/03 13:23:50;;;;;;;2.87;1.10;;;8.00;68.20;;;;;;4966488;28;20224;-77
2023/04/03 13:26:27;;;;;;;2.60;1.30;;;8.40;64.70;;;;;;4956934;28;20268;-75
2023/04/03 13:29:01;;;;;;;1.73;1.23;;;8.80;66.90;;;;;;4957290;28;20701;-82
2023/04/03 13:31:32;;;;;;;2.90;1.30;;;8.90;64.50;;;;;;4957253;28;20279;-76
2023/04/03 13:34:11;;;;;;;3.87;1.70;;;8.70;65.60;;;;;;4957430;28;20214;-82
2023/04/03 13:36:42;;;;;;;1.70;0.90;;;8.30;65.90;;;;;;4957003;28;20193;-81